createdAt,value
2023-05-07T00:00:22.750Z,987.74
2023-05-07T00:01:22.725Z,987.70
2023-05-07T00:02:22.783Z,987.68
2023-05-07T00:03:22.881Z,987.70
2023-05-07T00:04:22.784Z,987.70
2023-05-07T00:05:22.707Z,987.70
2023-05-07T00:06:22.687Z,987.66
2023-05-07T00:07:22.674Z,987.68
2023-05-07T00:08:22.640Z,987.68
2023-05-07T00:09:22.634Z,987.70
2023-05-07T00:10:22.634Z,987.76
2023-05-07T00:11:22.618Z,987.76
2023-05-07T00:12:22.596Z,987.80
2023-05-07T00:13:22.711Z,987.80
2023-05-07T00:14:22.562Z,987.80
2023-05-07T00:15:22.568Z,987.82
2023-05-07T00:16:22.626Z,987.80
2023-05-07T00:17:22.533Z,987.78
2023-05-07T00:18:22.533Z,987.80
2023-05-07T00:19:22.499Z,987.84
2023-05-07T00:20:22.507Z,987.86
2023-05-07T00:21:22.476Z,987.86
2023-05-07T00:22:22.459Z,987.92
2023-05-07T00:23:22.459Z,987.90
2023-05-07T00:24:21.499Z,987.90
2023-05-07T00:25:22.430Z,987.88
2023-05-07T00:26:22.404Z,987.90
2023-05-07T00:27:23.390Z,987.88
2023-05-07T00:28:22.410Z,987.84
2023-05-07T00:29:21.406Z,987.84
2023-05-07T00:30:21.428Z,987.86
2023-05-07T00:31:22.398Z,987.86
2023-05-07T00:32:22.417Z,987.86
2023-05-07T00:33:22.332Z,987.90
2023-05-07T00:34:22.318Z,987.90
2023-05-07T00:35:22.330Z,987.92
2023-05-07T00:36:22.270Z,987.94
2023-05-07T00:37:22.249Z,987.92
2023-05-07T00:38:22.216Z,987.94
2023-05-07T00:39:22.221Z,987.96
2023-05-07T00:40:22.227Z,987.94
2023-05-07T00:41:22.229Z,987.96
2023-05-07T00:42:22.226Z,987.96
2023-05-07T00:43:22.188Z,987.94
2023-05-07T00:44:22.151Z,987.94
2023-05-07T00:45:22.168Z,987.92
2023-05-07T00:46:22.231Z,987.90
2023-05-07T00:47:22.212Z,987.86
2023-05-07T00:48:22.128Z,987.84
2023-05-07T00:49:22.113Z,987.84
2023-05-07T00:50:22.087Z,987.82
2023-05-07T00:51:22.111Z,987.80
2023-05-07T00:52:22.071Z,987.78
2023-05-07T00:53:22.044Z,987.78
2023-05-07T00:54:22.034Z,987.76
2023-05-07T00:55:22.037Z,987.76
2023-05-07T00:56:22.446Z,987.74
2023-05-07T00:57:21.980Z,987.76
2023-05-07T00:58:21.974Z,987.74
2023-05-07T00:59:21.982Z,987.74
2023-05-07T01:00:21.942Z,987.74
2023-05-07T01:01:21.461Z,987.74
2023-05-07T01:02:21.946Z,987.76
2023-05-07T01:03:21.913Z,987.78
2023-05-07T01:04:21.902Z,987.80
2023-05-07T01:05:21.907Z,987.80
2023-05-07T01:06:21.873Z,987.78
2023-05-07T01:07:21.854Z,987.76
2023-05-07T01:08:21.841Z,987.74
2023-05-07T01:09:21.813Z,987.72
2023-05-07T01:10:21.803Z,987.72
2023-05-07T01:11:21.805Z,987.68
2023-05-07T01:12:21.801Z,987.68
2023-05-07T01:13:21.906Z,987.68
2023-05-07T01:14:21.780Z,987.68
2023-05-07T01:15:21.765Z,987.66
2023-05-07T01:16:21.793Z,987.65
2023-05-07T01:17:21.948Z,987.66
2023-05-07T01:18:21.698Z,987.66
2023-05-07T01:19:21.713Z,987.66
2023-05-07T01:20:21.736Z,987.65
2023-05-07T01:21:21.652Z,987.65
2023-05-07T01:22:21.676Z,987.66
2023-05-07T01:23:21.624Z,987.63
2023-05-07T01:24:21.629Z,987.63
2023-05-07T01:25:21.654Z,987.59
2023-05-07T01:26:21.589Z,987.59
2023-05-07T01:27:21.571Z,987.59
2023-05-07T01:28:21.563Z,987.61
2023-05-07T01:29:21.582Z,987.59
2023-05-07T01:30:21.562Z,987.59
2023-05-07T01:31:21.598Z,987.61
2023-05-07T01:32:21.550Z,987.59
2023-05-07T01:33:21.512Z,987.59
2023-05-07T01:34:21.528Z,987.61
2023-05-07T01:35:21.578Z,987.57
2023-05-07T01:36:21.446Z,987.57
2023-05-07T01:37:21.433Z,987.57
2023-05-07T01:38:21.436Z,987.57
2023-05-07T01:39:21.443Z,987.55
2023-05-07T01:40:20.901Z,987.57
2023-05-07T01:41:21.407Z,987.55
2023-05-07T01:42:21.472Z,987.53
2023-05-07T01:43:21.373Z,987.53
2023-05-07T01:44:21.354Z,987.53
2023-05-07T01:45:21.327Z,987.51
2023-05-07T01:46:21.330Z,987.53
2023-05-07T01:47:21.382Z,987.53
2023-05-07T01:48:21.287Z,987.53
2023-05-07T01:49:21.306Z,987.53
2023-05-07T01:50:21.259Z,987.51
2023-05-07T01:51:21.256Z,987.53
2023-05-07T01:52:21.252Z,987.51
2023-05-07T01:53:21.239Z,987.51
2023-05-07T01:54:21.240Z,987.51
2023-05-07T01:55:20.712Z,987.53
2023-05-07T01:56:21.218Z,987.51
2023-05-07T01:57:20.685Z,987.53
2023-05-07T01:58:20.664Z,987.53
2023-05-07T01:59:20.634Z,987.53
2023-05-07T02:00:21.117Z,987.53
2023-05-07T02:01:21.209Z,987.55
2023-05-07T02:02:20.670Z,987.53
2023-05-07T02:03:21.181Z,987.51
2023-05-07T02:04:21.074Z,987.53
2023-05-07T02:05:21.045Z,987.53
2023-05-07T02:06:21.058Z,987.53
2023-05-07T02:07:21.008Z,987.51
2023-05-07T02:08:21.006Z,987.53
2023-05-07T02:09:21.018Z,987.55
2023-05-07T02:10:21.016Z,987.57
2023-05-07T02:11:21.021Z,987.59
2023-05-07T02:12:20.975Z,987.61
2023-05-07T02:13:21.035Z,987.63
2023-05-07T02:14:20.956Z,987.63
2023-05-07T02:15:20.943Z,987.61
2023-05-07T02:16:21.044Z,987.61
2023-05-07T02:17:20.894Z,987.59
2023-05-07T02:18:20.881Z,987.59
2023-05-07T02:19:20.872Z,987.57
2023-05-07T02:20:20.848Z,987.57
2023-05-07T02:21:20.834Z,987.57
2023-05-07T02:22:20.827Z,987.53
2023-05-07T02:23:20.800Z,987.55
2023-05-07T02:24:20.798Z,987.55
2023-05-07T02:25:20.831Z,987.53
2023-05-07T02:26:20.293Z,987.53
2023-05-07T02:27:20.771Z,987.55
2023-05-07T02:28:20.733Z,987.53
2023-05-07T02:29:20.758Z,987.55
2023-05-07T02:30:20.768Z,987.57
2023-05-07T02:31:20.767Z,987.57
2023-05-07T02:32:20.694Z,987.57
2023-05-07T02:33:20.711Z,987.55
2023-05-07T02:34:20.688Z,987.55
2023-05-07T02:35:20.655Z,987.53
2023-05-07T02:36:20.687Z,987.53
2023-05-07T02:37:20.630Z,987.51
2023-05-07T02:38:20.605Z,987.51
2023-05-07T02:39:19.649Z,987.43
2023-05-07T02:40:19.631Z,987.43
2023-05-07T02:41:19.625Z,987.41
2023-05-07T02:42:20.622Z,987.43
2023-05-07T02:43:20.542Z,987.51
2023-05-07T02:44:20.550Z,987.51
2023-05-07T02:45:20.556Z,987.43
2023-05-07T02:46:20.569Z,987.43
2023-05-07T02:47:20.538Z,987.43
2023-05-07T02:48:20.495Z,987.43
2023-05-07T02:49:20.510Z,987.37
2023-05-07T02:50:20.481Z,987.37
2023-05-07T02:51:20.447Z,987.39
2023-05-07T02:52:20.405Z,987.41
2023-05-07T02:53:20.415Z,987.39
2023-05-07T02:54:19.899Z,987.39
2023-05-07T02:55:19.353Z,987.37
2023-05-07T02:56:19.851Z,987.37
2023-05-07T02:57:20.373Z,987.37
2023-05-07T02:58:20.334Z,987.39
2023-05-07T02:59:20.322Z,987.39
2023-05-07T03:00:20.325Z,987.39
2023-05-07T03:01:20.345Z,987.39
2023-05-07T03:02:20.321Z,987.41
2023-05-07T03:03:20.291Z,987.41
2023-05-07T03:04:20.282Z,987.43
2023-05-07T03:05:20.252Z,987.51
2023-05-07T03:06:20.252Z,987.51
2023-05-07T03:07:20.233Z,987.51
2023-05-07T03:08:20.227Z,987.51
2023-05-07T03:09:20.218Z,987.43
2023-05-07T03:10:20.161Z,987.51
2023-05-07T03:11:20.196Z,987.53
2023-05-07T03:12:20.153Z,987.51
2023-05-07T03:13:20.253Z,987.55
2023-05-07T03:14:20.133Z,987.53
2023-05-07T03:15:20.116Z,987.57
2023-05-07T03:16:20.149Z,987.55
2023-05-07T03:17:20.082Z,987.55
2023-05-07T03:18:20.127Z,987.55
2023-05-07T03:19:20.072Z,987.53
2023-05-07T03:20:19.827Z,987.51
2023-05-07T03:21:20.074Z,987.43
2023-05-07T03:22:20.052Z,987.41
2023-05-07T03:23:20.137Z,987.39
2023-05-07T03:24:19.996Z,987.39
2023-05-07T03:25:19.973Z,987.37
2023-05-07T03:26:19.961Z,987.39
2023-05-07T03:27:19.925Z,987.37
2023-05-07T03:28:19.939Z,987.37
2023-05-07T03:29:19.950Z,987.31
2023-05-07T03:30:20.055Z,987.33
2023-05-07T03:31:19.937Z,987.31
2023-05-07T03:32:19.995Z,987.31
2023-05-07T03:33:19.861Z,987.29
2023-05-07T03:34:19.855Z,987.29
2023-05-07T03:35:19.851Z,987.31
2023-05-07T03:36:19.827Z,987.31
2023-05-07T03:37:19.830Z,987.33
2023-05-07T03:38:19.808Z,987.33
2023-05-07T03:39:19.783Z,987.33
2023-05-07T03:40:19.772Z,987.33
2023-05-07T03:41:19.738Z,987.33
2023-05-07T03:42:19.736Z,987.33
2023-05-07T03:43:19.725Z,987.33
2023-05-07T03:44:19.695Z,987.35
2023-05-07T03:45:19.701Z,987.37
2023-05-07T03:46:19.778Z,987.33
2023-05-07T03:47:19.674Z,987.33
2023-05-07T03:48:19.657Z,987.33
2023-05-07T03:49:19.673Z,987.35
2023-05-07T03:50:19.635Z,987.35
2023-05-07T03:51:19.617Z,987.37
2023-05-07T03:52:19.615Z,987.37
2023-05-07T03:53:19.587Z,987.39
2023-05-07T03:54:19.595Z,987.41
2023-05-07T03:55:19.582Z,987.41
2023-05-07T03:56:19.784Z,987.39
2023-05-07T03:57:19.552Z,987.39
2023-05-07T03:58:19.518Z,987.39
2023-05-07T03:59:19.546Z,987.43
2023-05-07T04:00:19.506Z,987.43
2023-05-07T04:01:19.479Z,987.41
2023-05-07T04:02:19.500Z,987.43
2023-05-07T04:03:19.587Z,987.51
2023-05-07T04:04:19.623Z,987.51
2023-05-07T04:05:19.454Z,987.43
2023-05-07T04:06:19.412Z,987.51
2023-05-07T04:07:17.950Z,987.53
2023-05-07T04:08:19.387Z,987.57
2023-05-07T04:09:19.391Z,987.57
2023-05-07T04:10:19.361Z,987.59
2023-05-07T04:11:19.351Z,987.57
2023-05-07T04:12:19.364Z,987.57
2023-05-07T04:13:19.432Z,987.55
2023-05-07T04:14:19.302Z,987.55
2023-05-07T04:15:19.303Z,987.53
2023-05-07T04:16:18.368Z,987.53
2023-05-07T04:17:19.283Z,987.53
2023-05-07T04:18:19.283Z,987.55
2023-05-07T04:19:19.249Z,987.55
2023-05-07T04:20:19.257Z,987.57
2023-05-07T04:21:19.230Z,987.57
2023-05-07T04:22:19.200Z,987.55
2023-05-07T04:23:18.263Z,987.55
2023-05-07T04:24:19.169Z,987.57
2023-05-07T04:25:19.165Z,987.59
2023-05-07T04:26:19.186Z,987.59
2023-05-07T04:27:19.154Z,987.65
2023-05-07T04:28:19.124Z,987.65
2023-05-07T04:29:19.101Z,987.65
2023-05-07T04:30:19.097Z,987.63
2023-05-07T04:31:19.084Z,987.63
2023-05-07T04:32:19.093Z,987.61
2023-05-07T04:33:19.046Z,987.61
2023-05-07T04:34:19.072Z,987.59
2023-05-07T04:35:19.028Z,987.61
2023-05-07T04:36:19.026Z,987.59
2023-05-07T04:37:19.005Z,987.57
2023-05-07T04:38:18.981Z,987.57
2023-05-07T04:39:18.962Z,987.61
2023-05-07T04:40:18.946Z,987.61
2023-05-07T04:41:18.950Z,987.59
2023-05-07T04:42:18.925Z,987.59
2023-05-07T04:43:18.909Z,987.61
2023-05-07T04:44:18.892Z,987.57
2023-05-07T04:45:18.869Z,987.61
2023-05-07T04:46:18.914Z,987.63
2023-05-07T04:47:18.858Z,987.66
2023-05-07T04:48:18.830Z,987.66
2023-05-07T04:49:18.827Z,987.66
2023-05-07T04:50:18.820Z,987.66
2023-05-07T04:51:18.822Z,987.66
2023-05-07T04:52:18.784Z,987.66
2023-05-07T04:53:18.806Z,987.63
2023-05-07T04:54:18.745Z,987.61
2023-05-07T04:55:18.761Z,987.61
2023-05-07T04:56:18.735Z,987.63
2023-05-07T04:57:18.715Z,987.61
2023-05-07T04:58:18.697Z,987.59
2023-05-07T04:59:18.692Z,987.59
2023-05-07T05:00:18.709Z,987.57
2023-05-07T05:01:17.778Z,987.59
2023-05-07T05:02:20.600Z,987.59
2023-05-07T05:03:17.780Z,987.57
2023-05-07T05:04:18.679Z,987.57
2023-05-07T05:05:18.627Z,987.59
2023-05-07T05:06:18.600Z,987.59
2023-05-07T05:07:18.580Z,987.63
2023-05-07T05:08:18.645Z,987.61
2023-05-07T05:09:18.554Z,987.65
2023-05-07T05:10:18.555Z,987.65
2023-05-07T05:11:18.537Z,987.66
2023-05-07T05:12:18.501Z,987.65
2023-05-07T05:13:18.619Z,987.66
2023-05-07T05:14:18.500Z,987.65
2023-05-07T05:15:18.496Z,987.66
2023-05-07T05:16:18.518Z,987.63
2023-05-07T05:17:18.437Z,987.61
2023-05-07T05:18:18.446Z,987.63
2023-05-07T05:19:17.721Z,987.61
2023-05-07T05:20:18.440Z,987.61
2023-05-07T05:21:18.412Z,987.65
2023-05-07T05:22:18.412Z,987.63
2023-05-07T05:23:17.450Z,987.63
2023-05-07T05:24:18.364Z,987.66
2023-05-07T05:25:18.356Z,987.66
2023-05-07T05:26:18.346Z,987.70
2023-05-07T05:27:18.330Z,987.74
2023-05-07T05:28:18.310Z,987.76
2023-05-07T05:29:18.276Z,987.76
2023-05-07T05:30:18.281Z,987.82
2023-05-07T05:31:18.286Z,987.84
2023-05-07T05:32:18.249Z,987.84
2023-05-07T05:33:18.251Z,987.86
2023-05-07T05:34:18.214Z,987.88
2023-05-07T05:35:18.191Z,987.90
2023-05-07T05:36:18.179Z,987.92
2023-05-07T05:37:18.194Z,987.88
2023-05-07T05:38:18.168Z,987.92
2023-05-07T05:39:18.145Z,987.90
2023-05-07T05:40:18.132Z,987.88
2023-05-07T05:41:18.120Z,987.90
2023-05-07T05:42:18.118Z,987.88
2023-05-07T05:43:18.116Z,987.86
2023-05-07T05:44:18.078Z,987.88
2023-05-07T05:45:18.074Z,987.88
2023-05-07T05:46:18.159Z,987.86
2023-05-07T05:47:18.063Z,987.88
2023-05-07T05:48:18.071Z,987.90
2023-05-07T05:49:18.036Z,987.94
2023-05-07T05:50:17.993Z,987.94
2023-05-07T05:51:17.989Z,987.96
2023-05-07T05:52:18.000Z,987.96
2023-05-07T05:53:17.968Z,987.98
2023-05-07T05:54:17.961Z,988.00
2023-05-07T05:55:17.924Z,987.98
2023-05-07T05:56:17.924Z,987.96
2023-05-07T05:57:17.897Z,987.94
2023-05-07T05:58:17.910Z,987.98
2023-05-07T05:59:17.911Z,987.98
2023-05-07T06:00:17.876Z,987.94
2023-05-07T06:01:17.861Z,987.94
2023-05-07T06:02:17.843Z,987.98
2023-05-07T06:03:17.846Z,987.98
2023-05-07T06:04:17.797Z,987.96
2023-05-07T06:05:17.871Z,987.94
2023-05-07T06:06:17.775Z,987.96
2023-05-07T06:07:17.757Z,987.94
2023-05-07T06:08:17.751Z,987.92
2023-05-07T06:09:17.759Z,987.96
2023-05-07T06:10:17.732Z,987.96
2023-05-07T06:11:17.709Z,987.92
2023-05-07T06:12:17.709Z,987.96
2023-05-07T06:13:17.731Z,987.96
2023-05-07T06:14:17.653Z,987.94
2023-05-07T06:15:17.685Z,987.90
2023-05-07T06:16:17.669Z,987.92
2023-05-07T06:17:19.494Z,987.92
2023-05-07T06:18:17.622Z,987.96
2023-05-07T06:19:17.629Z,987.96
2023-05-07T06:20:17.597Z,987.94
2023-05-07T06:21:17.593Z,987.94
2023-05-07T06:22:17.568Z,987.94
2023-05-07T06:23:18.185Z,987.98
2023-05-07T06:24:17.572Z,987.98
2023-05-07T06:25:17.526Z,987.98
2023-05-07T06:26:17.498Z,988.00
2023-05-07T06:27:17.481Z,988.00
2023-05-07T06:28:17.466Z,988.00
2023-05-07T06:29:17.467Z,988.00
2023-05-07T06:30:17.458Z,988.04
2023-05-07T06:31:17.570Z,988.02
2023-05-07T06:32:16.467Z,988.04
2023-05-07T06:33:16.481Z,988.04
2023-05-07T06:34:17.397Z,988.00
2023-05-07T06:35:16.398Z,988.02
2023-05-07T06:36:17.459Z,988.02
2023-05-07T06:37:17.347Z,988.02
2023-05-07T06:38:17.352Z,988.04
2023-05-07T06:39:17.330Z,988.02
2023-05-07T06:40:17.308Z,988.06
2023-05-07T06:41:17.493Z,988.06
2023-05-07T06:42:17.277Z,988.04
2023-05-07T06:43:17.283Z,988.04
2023-05-07T06:44:17.261Z,988.06
2023-05-07T06:45:17.234Z,988.04
2023-05-07T06:46:17.280Z,988.08
2023-05-07T06:47:17.237Z,988.08
2023-05-07T06:48:17.202Z,988.10
2023-05-07T06:49:17.222Z,988.10
2023-05-07T06:50:17.176Z,988.10
2023-05-07T06:51:17.162Z,988.08
2023-05-07T06:52:17.176Z,988.12
2023-05-07T06:53:17.129Z,988.10
2023-05-07T06:54:17.116Z,988.13
2023-05-07T06:55:17.103Z,988.15
2023-05-07T06:56:17.090Z,988.13
2023-05-07T06:57:17.095Z,988.15
2023-05-07T06:58:17.073Z,988.15
2023-05-07T06:59:17.044Z,988.15
2023-05-07T07:00:17.033Z,988.17
2023-05-07T07:01:17.042Z,988.15
2023-05-07T07:02:18.319Z,988.15
2023-05-07T07:03:16.993Z,988.17
2023-05-07T07:04:17.102Z,988.19
2023-05-07T07:05:16.957Z,988.19
2023-05-07T07:06:16.981Z,988.21
2023-05-07T07:07:16.927Z,988.19
2023-05-07T07:08:16.921Z,988.19
2023-05-07T07:09:16.889Z,988.19
2023-05-07T07:10:16.243Z,988.17
2023-05-07T07:11:16.889Z,988.19
2023-05-07T07:12:16.866Z,988.19
2023-05-07T07:13:16.920Z,988.17
2023-05-07T07:14:16.818Z,988.21
2023-05-07T07:15:16.839Z,988.19
2023-05-07T07:16:17.017Z,988.19
2023-05-07T07:17:16.783Z,988.17
2023-05-07T07:18:16.768Z,988.17
2023-05-07T07:19:16.764Z,988.19
2023-05-07T07:20:16.981Z,988.19
2023-05-07T07:21:16.761Z,988.19
2023-05-07T07:22:16.870Z,988.21
2023-05-07T07:23:16.714Z,988.21
2023-05-07T07:24:16.701Z,988.15
2023-05-07T07:25:16.831Z,988.15
2023-05-07T07:26:16.682Z,988.17
2023-05-07T07:27:16.649Z,988.15
2023-05-07T07:28:16.676Z,988.15
2023-05-07T07:29:16.630Z,988.15
2023-05-07T07:30:16.611Z,988.17
2023-05-07T07:31:16.646Z,988.17
2023-05-07T07:32:16.580Z,988.15
2023-05-07T07:33:16.559Z,988.15
2023-05-07T07:34:16.555Z,988.12
2023-05-07T07:35:16.534Z,988.12
2023-05-07T07:36:16.534Z,988.13
2023-05-07T07:37:16.534Z,988.13
2023-05-07T07:38:16.501Z,988.12
2023-05-07T07:39:16.519Z,988.15
2023-05-07T07:40:16.472Z,988.15
2023-05-07T07:41:16.448Z,988.15
2023-05-07T07:42:16.435Z,988.13
2023-05-07T07:43:16.426Z,988.19
2023-05-07T07:44:16.804Z,988.19
2023-05-07T07:45:16.412Z,988.17
2023-05-07T07:46:16.429Z,988.17
2023-05-07T07:47:16.426Z,988.17
2023-05-07T07:48:16.381Z,988.19
2023-05-07T07:49:16.367Z,988.19
2023-05-07T07:50:24.361Z,988.19
2023-05-07T07:51:17.326Z,988.19
2023-05-07T07:52:16.309Z,988.21
2023-05-07T07:53:18.966Z,988.23
2023-05-07T07:54:15.910Z,988.19
2023-05-07T07:55:16.273Z,988.25
2023-05-07T07:56:16.285Z,988.23
2023-05-07T07:57:16.279Z,988.23
2023-05-07T07:58:16.265Z,988.23
2023-05-07T07:59:16.277Z,988.25
2023-05-07T08:00:16.214Z,988.25
2023-05-07T08:01:16.177Z,988.29
2023-05-07T08:02:16.175Z,988.29
2023-05-07T08:03:16.222Z,988.27
2023-05-07T08:04:16.226Z,988.31
2023-05-07T08:05:16.123Z,988.35
2023-05-07T08:06:16.126Z,988.33
2023-05-07T08:07:16.112Z,988.33
2023-05-07T08:08:16.120Z,988.33
2023-05-07T08:09:16.062Z,988.33
2023-05-07T08:10:16.072Z,988.31
2023-05-07T08:11:16.046Z,988.37
2023-05-07T08:12:16.038Z,988.35
2023-05-07T08:13:16.106Z,988.35
2023-05-07T08:14:15.999Z,988.37
2023-05-07T08:15:15.987Z,988.35
2023-05-07T08:16:15.999Z,988.39
2023-05-07T08:17:16.016Z,988.39
2023-05-07T08:18:15.969Z,988.43
2023-05-07T08:19:15.958Z,988.45
2023-05-07T08:20:15.941Z,988.45
2023-05-07T08:21:15.900Z,988.45
2023-05-07T08:22:15.915Z,988.45
2023-05-07T08:23:15.986Z,988.45
2023-05-07T08:24:15.875Z,988.47
2023-05-07T08:25:15.858Z,988.45
2023-05-07T08:26:15.848Z,988.43
2023-05-07T08:27:15.833Z,988.43
2023-05-07T08:28:15.831Z,988.41
2023-05-07T08:29:15.793Z,988.43
2023-05-07T08:30:15.785Z,988.41
2023-05-07T08:31:15.830Z,988.41
2023-05-07T08:32:15.781Z,988.41
2023-05-07T08:33:14.411Z,988.41
2023-05-07T08:34:15.737Z,988.41
2023-05-07T08:35:15.713Z,988.39
2023-05-07T08:36:15.722Z,988.37
2023-05-07T08:37:15.693Z,988.39
2023-05-07T08:38:15.710Z,988.37
2023-05-07T08:39:15.675Z,988.39
2023-05-07T08:40:16.053Z,988.39
2023-05-07T08:41:15.658Z,988.37
2023-05-07T08:42:15.670Z,988.33
2023-05-07T08:43:15.634Z,988.31
2023-05-07T08:44:14.483Z,988.31
2023-05-07T08:45:15.684Z,988.29
2023-05-07T08:46:15.656Z,988.27
2023-05-07T08:47:15.570Z,988.29
2023-05-07T08:48:15.568Z,988.29
2023-05-07T08:49:15.655Z,988.29
2023-05-07T08:50:15.539Z,988.31
2023-05-07T08:51:15.520Z,988.31
2023-05-07T08:52:14.544Z,988.35
2023-05-07T08:53:14.556Z,988.31
2023-05-07T08:54:15.469Z,988.33
2023-05-07T08:55:15.483Z,988.33
2023-05-07T08:56:15.446Z,988.33
2023-05-07T08:57:15.436Z,988.35
2023-05-07T08:58:15.419Z,988.33
2023-05-07T08:59:15.408Z,988.31
2023-05-07T09:00:15.402Z,988.31
2023-05-07T09:01:15.401Z,988.31
2023-05-07T09:02:15.447Z,988.31
2023-05-07T09:03:15.497Z,988.29
2023-05-07T09:04:15.412Z,988.33
2023-05-07T09:05:15.338Z,988.33
2023-05-07T09:06:15.327Z,988.29
2023-05-07T09:07:15.288Z,988.31
2023-05-07T09:08:15.277Z,988.25
2023-05-07T09:09:15.282Z,988.25
2023-05-07T09:10:15.256Z,988.25
2023-05-07T09:11:15.237Z,988.23
2023-05-07T09:12:15.219Z,988.21
2023-05-07T09:13:15.262Z,988.23
2023-05-07T09:14:15.230Z,988.23
2023-05-07T09:15:15.184Z,988.21
2023-05-07T09:16:15.232Z,988.23
2023-05-07T09:17:15.156Z,988.27
2023-05-07T09:19:15.149Z,988.21
2023-05-07T09:20:15.128Z,988.23
2023-05-07T09:21:15.114Z,988.21
2023-05-07T09:22:15.102Z,988.21
2023-05-07T09:23:15.113Z,988.19
2023-05-07T09:24:15.067Z,988.21
2023-05-07T09:25:15.094Z,988.19
2023-05-07T09:26:15.025Z,988.17
2023-05-07T09:27:15.024Z,988.19
2023-05-07T09:28:15.023Z,988.15
2023-05-07T09:29:15.000Z,988.15
2023-05-07T09:30:15.071Z,988.19
2023-05-07T09:31:15.003Z,988.15
2023-05-07T09:32:14.982Z,988.12
2023-05-07T09:33:14.971Z,988.12
2023-05-07T09:34:14.934Z,988.12
2023-05-07T09:35:14.911Z,988.12
2023-05-07T09:36:14.934Z,988.12
2023-05-07T09:37:14.908Z,988.13
2023-05-07T09:38:14.384Z,988.12
2023-05-07T09:39:14.938Z,988.13
2023-05-07T09:40:14.884Z,988.15
2023-05-07T09:41:14.841Z,988.15
2023-05-07T09:42:14.874Z,988.19
2023-05-07T09:43:13.912Z,988.15
2023-05-07T09:44:13.586Z,988.13
2023-05-07T09:45:13.517Z,988.13
2023-05-07T09:46:14.943Z,988.10
2023-05-07T09:47:14.793Z,988.12
2023-05-07T09:48:14.763Z,988.12
2023-05-07T09:49:14.748Z,988.10
2023-05-07T09:50:14.781Z,988.10
2023-05-07T09:51:14.746Z,988.06
2023-05-07T09:52:14.740Z,988.08
2023-05-07T09:53:14.686Z,988.08
2023-05-07T09:54:14.663Z,988.04
2023-05-07T09:55:14.669Z,988.06
2023-05-07T09:56:14.657Z,988.08
2023-05-07T09:57:14.922Z,988.04
2023-05-07T09:58:14.633Z,988.02
2023-05-07T09:59:14.621Z,988.04
2023-05-07T10:00:14.629Z,988.06
2023-05-07T10:01:14.627Z,988.06
2023-05-07T10:02:14.605Z,988.04
2023-05-07T10:03:14.640Z,988.04
2023-05-07T10:04:14.560Z,988.02
2023-05-07T10:05:14.544Z,988.02
2023-05-07T10:06:14.548Z,988.02
2023-05-07T10:07:14.511Z,988.00
2023-05-07T10:08:13.207Z,988.00
2023-05-07T10:09:14.505Z,988.00
2023-05-07T10:10:14.542Z,988.02
2023-05-07T10:11:14.490Z,988.04
2023-05-07T10:12:14.452Z,988.02
2023-05-07T10:13:14.777Z,987.98
2023-05-07T10:14:14.604Z,988.00
2023-05-07T10:15:14.539Z,988.02
2023-05-07T10:16:14.435Z,988.00
2023-05-07T10:17:14.454Z,987.98
2023-05-07T10:18:14.558Z,988.00
2023-05-07T10:19:15.341Z,987.96
2023-05-07T10:20:14.671Z,987.96
2023-05-07T10:21:13.275Z,987.96
2023-05-07T10:22:14.635Z,987.94
2023-05-07T10:23:13.029Z,987.94
2023-05-07T10:24:14.533Z,987.92
2023-05-07T10:25:14.679Z,987.92
2023-05-07T10:26:14.583Z,987.90
2023-05-07T10:27:14.458Z,987.90
2023-05-07T10:28:14.530Z,987.92
2023-05-07T10:29:14.569Z,987.92
2023-05-07T10:30:14.616Z,987.92
2023-05-07T10:31:14.639Z,987.90
2023-05-07T10:32:13.043Z,987.88
2023-05-07T10:33:14.418Z,987.90
2023-05-07T10:34:13.066Z,987.90
2023-05-07T10:35:13.109Z,987.90
2023-05-07T10:36:14.351Z,987.88
2023-05-07T10:37:13.025Z,987.88
2023-05-07T10:38:14.390Z,987.86
2023-05-07T10:39:13.092Z,987.84
2023-05-07T10:40:14.307Z,987.80
2023-05-07T10:41:14.308Z,987.80
2023-05-07T10:42:13.221Z,987.78
2023-05-07T10:43:14.350Z,987.76
2023-05-07T10:44:13.335Z,987.74
2023-05-07T10:45:14.602Z,987.74
2023-05-07T10:46:14.108Z,987.74
2023-05-07T10:47:14.115Z,987.78
2023-05-07T10:49:14.116Z,987.76
2023-05-07T10:50:14.038Z,987.76
2023-05-07T10:51:21.172Z,987.76
2023-05-07T10:52:13.965Z,987.78
2023-05-07T10:53:13.965Z,987.76
2023-05-07T10:54:13.946Z,987.80
2023-05-07T10:55:13.912Z,987.80
2023-05-07T10:56:13.922Z,987.82
2023-05-07T10:57:13.932Z,987.82
2023-05-07T10:58:23.517Z,987.80
2023-05-07T10:59:13.965Z,987.80
2023-05-07T11:00:14.149Z,987.80
2023-05-07T11:01:13.879Z,987.78
2023-05-07T11:02:13.916Z,987.80
2023-05-07T11:03:13.940Z,987.80
2023-05-07T11:04:13.811Z,987.76
2023-05-07T11:05:14.283Z,987.76
2023-05-07T11:06:12.595Z,987.76
2023-05-07T11:07:13.936Z,987.74
2023-05-07T11:08:13.761Z,987.76
2023-05-07T11:09:13.854Z,987.72
2023-05-07T11:10:13.357Z,987.74
2023-05-07T11:11:13.765Z,987.74
2023-05-07T11:12:13.764Z,987.72
2023-05-07T11:13:13.747Z,987.72
2023-05-07T11:14:13.690Z,987.72
2023-05-07T11:15:13.820Z,987.70
2023-05-07T11:16:13.752Z,987.72
2023-05-07T11:17:13.638Z,987.68
2023-05-07T11:18:12.709Z,987.68
2023-05-07T11:19:12.673Z,987.68
2023-05-07T11:20:12.707Z,987.68
2023-05-07T11:21:13.767Z,987.66
2023-05-07T11:22:12.681Z,987.65
2023-05-07T11:23:13.555Z,987.66
2023-05-07T11:24:13.551Z,987.66
2023-05-07T11:25:13.771Z,987.66
2023-05-07T11:26:12.624Z,987.66
2023-05-07T11:27:13.057Z,987.65
2023-05-07T11:28:14.031Z,987.63
2023-05-07T11:29:13.693Z,987.63
2023-05-07T11:30:13.510Z,987.65
2023-05-07T11:31:13.600Z,987.66
2023-05-07T11:32:13.653Z,987.65
2023-05-07T11:33:13.444Z,987.68
2023-05-07T11:34:13.414Z,987.65
2023-05-07T11:35:13.654Z,987.66
2023-05-07T11:36:13.389Z,987.68
2023-05-07T11:37:13.367Z,987.68
2023-05-07T11:38:13.347Z,987.70
2023-05-07T11:39:13.338Z,987.72
2023-05-07T11:40:13.338Z,987.70
2023-05-07T11:41:13.323Z,987.72
2023-05-07T11:42:13.305Z,987.72
2023-05-07T11:43:13.284Z,987.70
2023-05-07T11:44:13.276Z,987.72
2023-05-07T11:45:13.523Z,987.70
2023-05-07T11:46:13.340Z,987.70
2023-05-07T11:47:13.236Z,987.72
2023-05-07T11:48:13.211Z,987.76
2023-05-07T11:49:13.218Z,987.74
2023-05-07T11:50:13.205Z,987.74
2023-05-07T11:51:13.243Z,987.74
2023-05-07T11:52:12.044Z,987.74
2023-05-07T11:53:14.206Z,987.74
2023-05-07T11:54:13.155Z,987.76
2023-05-07T11:55:13.286Z,987.78
2023-05-07T11:56:13.117Z,987.76
2023-05-07T11:57:13.106Z,987.80
2023-05-07T11:58:13.107Z,987.76
2023-05-07T11:59:13.098Z,987.76
2023-05-07T12:00:13.061Z,987.74
2023-05-07T12:01:13.046Z,987.74
2023-05-07T12:02:13.062Z,987.72
2023-05-07T12:03:13.088Z,987.72
2023-05-07T12:04:13.111Z,987.74
2023-05-07T12:05:13.253Z,987.74
2023-05-07T12:06:12.808Z,987.72
2023-05-07T12:07:13.009Z,987.74
2023-05-07T12:08:11.991Z,987.74
2023-05-07T12:09:12.457Z,987.74
2023-05-07T12:10:12.015Z,987.74
2023-05-07T12:11:12.028Z,987.72
2023-05-07T12:12:12.924Z,987.74
2023-05-07T12:13:12.952Z,987.72
2023-05-07T12:14:12.891Z,987.76
2023-05-07T12:15:13.216Z,987.76
2023-05-07T12:16:12.912Z,987.72
2023-05-07T12:17:12.347Z,987.72
2023-05-07T12:18:12.978Z,987.74
2023-05-07T12:19:15.148Z,987.72
2023-05-07T12:20:11.849Z,987.74
2023-05-07T12:21:12.788Z,987.76
2023-05-07T12:22:14.089Z,987.74
2023-05-07T12:23:12.775Z,987.74
2023-05-07T12:24:12.743Z,987.76
2023-05-07T12:25:12.888Z,987.78
2023-05-07T12:26:12.710Z,987.78
2023-05-07T12:27:12.726Z,987.76
2023-05-07T12:28:12.704Z,987.80
2023-05-07T12:29:12.687Z,987.80
2023-05-07T12:30:12.737Z,987.78